.
WxDataArchive / Data Records for 2014-11-09
2014-11-08 November 2014 2014-11-10

Data Records for Sunday, 09 November 2014

Time	Temp	Chill	HIndex	Humid	Dewpt	 Wind 	HiWind	WindDir	Rain 	Barom
-----	----	-----	------	-----	-----	------	------	-------	-----	-----
00:00	38.9	38.9	38.9	77	32.3	0	2	292	0.00	29.914 
00:05	39.2	39.2	39.2	77	32.6	0	1	292	0.00	29.914 
00:10	39.3	39.3	39.3	77	32.7	0	1	292	0.00	29.914 
00:15	39.5	39.5	39.5	76	32.6	0	1	292	0.00	29.913 
00:20	39.6	39.6	39.6	76	32.7	0	0	---	0.00	29.913 
00:25	39.6	39.6	39.6	76	32.7	0	1	292	0.00	29.913 
00:30	39.6	39.6	39.6	75	32.3	0	1	292	0.00	29.918 
00:35	39.6	39.6	39.6	75	32.3	0	1	292	0.00	29.918 
00:40	39.5	39.5	39.5	74	31.9	0	0	---	0.00	29.918 
00:45	39.5	39.5	39.5	74	31.9	0	0	---	0.00	29.917 
00:50	39.3	39.3	39.3	74	31.7	0	0	---	0.00	29.917 
00:55	39.1	39.1	39.1	74	31.5	0	0	---	0.00	29.917 
01:00	38.9	38.9	38.9	74	31.3	0	1	292	0.00	29.916 
01:05	38.8	38.8	38.8	75	31.6	0	0	---	0.00	29.916 
01:10	38.5	38.5	38.5	75	31.3	0	0	---	0.00	29.916 
01:15	38.3	38.3	38.3	75	31.1	0	0	---	0.00	29.913 
01:20	38.0	38.0	38.0	76	31.1	0	0	---	0.00	29.913 
01:25	37.9	37.9	37.9	76	31.0	0	1	292	0.00	29.913 
01:30	37.9	37.9	37.9	76	31.0	0	1	292	0.00	29.915 
01:35	37.8	37.8	37.8	76	30.9	0	1	292	0.00	29.915 
01:40	37.8	37.8	37.8	76	30.9	0	0	---	0.00	29.915 
01:45	37.8	37.8	37.8	76	30.9	0	1	292	0.00	29.920 
01:50	37.8	37.8	37.8	76	30.9	0	1	292	0.00	29.920 
01:55	37.8	37.8	37.8	76	30.9	0	0	---	0.00	29.920 
02:00	37.6	37.6	37.6	76	30.7	0	0	---	0.00	29.922 
02:05	37.6	37.6	37.6	76	30.7	0	0	---	0.00	29.922 
02:10	37.6	37.6	37.6	76	30.7	0	1	292	0.00	29.922 
02:15	37.6	37.6	37.6	76	30.7	0	1	292	0.00	29.921 
02:20	37.5	37.5	37.5	76	30.6	0	1	292	0.00	29.921 
02:25	37.5	37.5	37.5	76	30.6	0	1	292	0.00	29.921 
02:30	37.3	37.3	37.3	76	30.4	0	1	292	0.00	29.930 
02:35	37.3	37.3	37.3	76	30.4	0	0	---	0.00	29.930 
02:40	37.2	37.2	37.2	76	30.3	0	0	---	0.00	29.930 
02:45	37.0	37.0	37.0	76	30.2	0	1	292	0.00	29.929 
02:50	36.9	36.9	36.9	77	30.4	0	1	292	0.00	29.929 
02:55	36.9	36.9	36.9	77	30.4	0	1	292	0.00	29.929 
03:00	36.8	36.8	36.8	77	30.3	0	1	292	0.00	29.929 
03:05	36.8	36.8	36.8	77	30.3	0	1	292	0.00	29.929 
03:10	36.6	36.6	36.6	77	30.1	0	1	292	0.00	29.929 
03:15	36.6	36.6	36.6	77	30.1	0	1	292	0.00	29.929 
03:20	36.5	36.5	36.5	78	30.3	0	1	292	0.00	29.929 
03:25	36.3	36.3	36.3	78	30.1	0	1	292	0.00	29.929 
03:30	36.2	36.2	36.2	78	30.0	0	1	292	0.00	29.929 
03:35	36.2	36.2	36.2	78	30.0	0	1	292	0.00	29.929 
03:40	36.0	36.0	36.0	78	29.8	0	1	292	0.00	29.929 
03:45	36.0	36.0	36.0	79	30.1	0	1	292	0.00	29.928 
03:50	35.9	35.9	35.9	79	30.0	0	1	292	0.00	29.928 
03:55	35.8	35.8	35.8	79	29.9	0	0	---	0.00	29.928 
04:00	35.6	35.6	35.6	79	29.7	0	1	292	0.00	29.927 
04:05	35.5	35.5	35.5	80	30.0	0	0	---	0.00	29.927 
04:10	35.3	35.3	35.3	80	29.8	0	0	---	0.00	29.927 
04:15	35.0	35.0	35.0	80	29.5	0	0	---	0.00	29.919 
04:20	34.9	34.9	34.9	81	29.7	0	0	---	0.00	29.919 
04:25	34.9	34.9	34.9	81	29.7	0	0	---	0.00	29.919 
04:30	34.7	34.7	34.7	81	29.5	0	0	---	0.00	29.915 
04:35	34.6	34.6	34.6	81	29.4	0	1	292	0.00	29.915 
04:40	34.4	34.4	34.4	81	29.2	0	0	---	0.00	29.915 
04:45	34.3	34.3	34.3	82	29.4	0	1	292	0.00	29.913 
04:50	34.3	34.3	34.3	82	29.4	0	0	---	0.00	29.913 
04:55	34.1	34.1	34.1	82	29.2	0	0	---	0.00	29.913 
05:00	34.0	34.0	34.0	82	29.1	0	0	---	0.00	29.913 
05:05	34.0	34.0	34.0	83	29.4	0	0	---	0.00	29.913 
05:10	33.8	33.8	33.8	83	29.2	0	0	---	0.00	29.913 
05:15	33.8	33.8	33.8	83	29.2	0	1	292	0.00	29.920 
05:20	33.7	33.7	33.7	83	29.1	0	0	---	0.00	29.920 
05:25	33.7	33.7	33.7	84	29.4	0	1	292	0.00	29.920 
05:30	33.7	33.7	33.7	84	29.4	0	1	292	0.00	29.924 
05:35	33.7	33.7	33.7	84	29.4	0	2	292	0.00	29.924 
05:40	33.7	33.7	33.7	84	29.4	0	1	292	0.00	29.924 
05:45	33.7	33.7	33.7	84	29.4	0	1	292	0.00	29.929 
05:50	33.5	33.5	33.5	84	29.2	0	1	292	0.00	29.929 
05:55	33.5	33.5	33.5	84	29.2	0	1	292	0.00	29.929 
06:00	33.4	33.4	33.4	84	29.1	0	1	292	0.00	29.942 
06:05	33.2	33.2	33.2	84	28.9	0	1	292	0.00	29.942 
06:10	33.2	33.2	33.2	84	28.9	0	1	292	0.00	29.942 
06:15	33.1	33.1	33.1	84	28.8	0	0	---	0.00	29.949 
06:20	32.9	32.9	32.9	84	28.6	0	1	292	0.00	29.949 
06:25	32.9	32.9	32.9	84	28.6	0	1	292	0.00	29.949 
06:30	32.8	32.8	32.8	84	28.5	0	1	292	0.00	29.948 
06:35	32.8	32.8	32.8	84	28.5	0	1	292	0.00	29.948 
06:40	32.8	32.8	32.8	84	28.5	0	1	292	0.00	29.948 
06:45	32.7	32.7	32.7	84	28.4	0	1	292	0.00	29.948 
06:50	32.7	32.7	32.7	84	28.4	0	1	292	0.00	29.948 
06:55	32.7	32.7	32.7	84	28.4	0	0	---	0.00	29.948 
07:00	32.7	32.7	32.7	84	28.4	0	1	292	0.00	29.948 
07:05	32.7	32.7	32.7	84	28.4	0	1	292	0.00	29.948 
07:10	32.7	32.7	32.7	84	28.4	0	0	---	0.00	29.948 
07:15	32.5	32.5	32.5	84	28.2	0	0	---	0.00	29.953 
07:20	32.5	32.5	32.5	84	28.2	0	0	---	0.00	29.953 
07:25	32.4	32.4	32.4	84	28.1	0	1	292	0.00	29.953 
07:30	32.4	32.4	32.4	84	28.1	0	1	292	0.00	29.965 
07:35	32.4	32.4	32.4	84	28.1	0	0	---	0.00	29.965 
07:40	32.2	32.2	32.2	84	27.9	0	1	292	0.00	29.965 
07:45	32.2	32.2	32.2	84	27.9	0	0	---	0.00	29.959 
07:50	32.2	32.2	32.2	84	27.9	0	0	---	0.00	29.959 
07:55	32.2	32.2	32.2	84	27.9	0	1	292	0.00	29.959 
08:00	32.4	32.4	32.4	84	28.1	0	0	---	0.00	29.960 
08:05	32.4	32.4	32.4	84	28.1	0	1	292	0.00	29.960 
08:10	32.5	32.5	32.5	84	28.2	0	1	292	0.00	29.960 
08:15	32.7	32.7	32.7	84	28.4	0	1	292	0.00	29.955 
08:20	32.8	32.8	32.8	84	28.5	0	1	292	0.00	29.955 
08:25	32.9	32.9	32.9	83	28.3	0	0	---	0.00	29.955 
08:30	33.1	33.1	33.1	83	28.5	0	2	292	0.00	29.963 
08:35	33.4	33.4	33.4	83	28.8	0	2	292	0.00	29.963 
08:40	33.8	33.8	33.8	82	28.9	0	2	292	0.00	29.963 
08:45	34.1	34.1	34.1	81	28.9	0	1	292	0.00	29.964 
08:50	34.3	34.3	34.3	81	29.1	0	2	292	0.00	29.964 
08:55	34.6	34.6	34.6	80	29.1	0	3	292	0.00	29.964 
09:00	34.7	34.7	34.7	78	28.6	1	4	292	0.00	29.957 
09:05	35.0	35.0	35.0	77	28.5	0	2	248	0.00	29.957 
09:10	35.2	35.2	35.2	77	28.7	0	2	248	0.00	29.957 
09:15	35.5	35.5	35.5	76	28.7	0	2	248	0.00	29.952 
09:20	35.6	35.6	35.6	76	28.8	0	3	248	0.00	29.952 
09:25	35.8	35.8	35.8	75	28.7	0	2	248	0.00	29.952 
09:30	35.9	35.9	35.9	75	28.8	0	2	248	0.00	29.964 
09:35	36.0	36.0	36.0	74	28.5	0	4	248	0.00	29.964 
09:40	36.0	36.0	36.0	73	28.2	0	2	248	0.00	29.964 
09:45	36.3	36.3	36.3	74	28.8	0	1	248	0.00	29.964 
09:50	36.6	36.6	36.6	73	28.8	0	1	248	0.00	29.964 
09:55	36.9	36.9	36.9	72	28.7	0	2	248	0.00	29.964 
10:00	37.2	37.2	37.2	71	28.7	0	2	248	0.00	29.959 
10:05	37.5	37.5	37.5	70	28.6	0	3	248	0.00	29.959 
10:10	37.6	37.6	37.6	69	28.4	0	3	248	0.00	29.959 
10:15	37.9	37.9	37.9	69	28.7	0	2	248	0.00	29.956 
10:20	38.0	38.0	38.0	68	28.4	0	3	248	0.00	29.956 
10:25	38.2	38.2	38.2	66	27.9	1	3	248	0.00	29.956 
10:30	38.5	38.5	38.5	66	28.1	0	2	248	0.00	29.954 
10:35	38.9	38.9	38.9	66	28.5	0	3	248	0.00	29.954 
10:40	39.3	39.3	39.3	65	28.5	0	3	248	0.00	29.954 
10:45	39.6	39.6	39.6	64	28.4	1	3	248	0.00	29.955 
10:50	39.6	39.6	39.6	61	27.3	1	5	248	0.00	29.955 
10:55	39.8	39.8	39.8	62	27.9	0	3	270	0.00	29.955 
11:00	40.1	40.1	40.1	60	27.3	1	4	270	0.00	29.949 
11:05	40.3	40.3	40.3	60	27.5	1	3	270	0.00	29.949 
11:10	40.6	40.6	40.6	59	27.4	1	5	270	0.00	29.949 
11:15	40.6	40.6	40.6	57	26.6	1	5	248	0.00	29.942 
11:20	40.8	40.8	40.8	58	27.2	1	3	248	0.00	29.942 
11:25	41.2	41.2	41.2	58	27.6	1	3	248	0.00	29.942 
11:30	41.5	41.5	41.5	57	27.4	1	5	248	0.00	29.936 
11:35	41.6	41.6	41.6	55	26.6	2	4	248	0.00	29.936 
11:40	41.6	41.6	41.6	55	26.6	1	5	248	0.00	29.936 
11:45	41.9	41.9	41.9	55	26.9	1	5	248	0.00	29.928 
11:50	42.3	42.3	42.3	54	26.9	1	5	248	0.00	29.928 
11:55	42.6	42.6	42.6	54	27.1	1	4	248	0.00	29.928 
12:00	42.9	42.9	42.9	55	27.9	1	3	248	0.00	29.915 
12:05	42.8	42.8	42.8	55	27.8	1	3	248	0.00	29.915 
12:10	42.6	42.6	42.6	54	27.1	1	6	248	0.00	29.915 
12:15	42.5	42.5	42.5	54	27.0	1	5	248	0.00	29.908 
12:20	42.6	42.6	42.6	56	28.0	1	4	248	0.00	29.908 
12:25	42.6	42.6	42.6	54	27.1	1	6	248	0.00	29.908 
12:30	42.8	42.8	42.8	55	27.8	1	3	248	0.00	29.902 
12:35	43.1	43.1	43.1	56	28.5	0	3	248	0.00	29.902 
12:40	43.2	43.2	43.2	55	28.1	1	6	248	0.00	29.902 
12:45	43.3	43.3	43.3	55	28.2	1	3	270	0.00	29.889 
12:50	43.2	43.2	43.2	54	27.7	1	5	270	0.00	29.889 
12:55	43.5	43.5	43.5	54	28.0	1	4	270	0.00	29.889 
13:00	43.6	43.6	43.6	53	27.6	1	5	248	0.00	29.882 
13:05	43.6	43.6	43.6	54	28.1	1	5	225	0.00	29.882 
13:10	43.6	43.6	43.6	54	28.1	0	3	270	0.00	29.882 
13:15	43.6	43.6	43.6	55	28.5	0	2	225	0.00	29.872 
13:20	43.5	43.5	43.5	54	28.0	1	3	225	0.00	29.872 
13:25	43.6	43.6	43.6	54	28.1	0	4	270	0.00	29.872 
13:30	43.6	43.6	43.6	54	28.1	0	3	68	0.00	29.867 
13:35	43.6	43.6	43.6	54	28.1	1	4	248	0.00	29.867 
13:40	43.6	43.6	43.6	54	28.1	1	4	248	0.00	29.867 
13:45	43.5	43.5	43.5	53	27.5	1	5	248	0.00	29.865 
13:50	43.3	43.3	43.3	55	28.2	0	5	248	0.00	29.865 
13:55	43.2	43.2	43.2	54	27.7	1	5	248	0.00	29.865 
14:00	43.2	43.2	43.2	55	28.1	1	6	248	0.00	29.868 
14:05	43.1	43.1	43.1	55	28.0	0	2	248	0.00	29.868 
14:10	43.2	43.2	43.2	55	28.1	0	4	248	0.00	29.868 
14:15	43.2	43.2	43.2	55	28.1	0	2	248	0.00	29.863 
14:20	43.2	43.2	43.2	53	27.2	1	4	248	0.00	29.863 
14:25	43.2	43.2	43.2	53	27.2	1	5	248	0.00	29.863 
14:30	43.2	43.2	43.2	53	27.2	1	6	248	0.00	29.852 
14:35	43.3	43.3	43.3	54	27.8	0	4	248	0.00	29.852 
14:40	43.6	43.6	43.6	55	28.5	0	2	248	0.00	29.852 
14:45	43.9	43.9	43.9	55	28.8	1	5	248	0.00	29.851 
14:50	44.1	44.1	44.1	54	28.5	1	4	248	0.00	29.851 
14:55	44.2	44.2	44.2	55	29.1	0	2	248	0.00	29.851 
15:00	44.3	44.3	44.3	55	29.2	1	3	248	0.00	29.845 
15:05	44.6	44.6	44.6	54	29.0	0	2	248	0.00	29.845 
15:10	45.1	45.1	45.1	54	29.5	0	3	248	0.00	29.845 
15:15	45.4	45.4	45.4	52	28.8	1	6	248	0.00	29.847 
15:20	45.7	45.7	45.7	51	28.6	1	4	248	0.00	29.847 
15:25	45.8	45.8	45.8	50	28.2	1	4	270	0.00	29.847 
15:30	46.1	46.1	46.1	50	28.5	1	4	248	0.00	29.834 
15:35	46.2	46.2	46.2	49	28.1	2	6	248	0.00	29.834 
15:40	46.2	46.2	46.2	50	28.6	1	5	248	0.00	29.834 
15:45	46.1	46.1	46.1	50	28.5	1	3	248	0.00	29.833 
15:50	46.1	46.1	46.1	51	29.0	0	1	248	0.00	29.833 
15:55	46.2	46.2	46.2	51	29.1	0	1	248	0.00	29.833 
16:00	46.2	46.2	46.2	51	29.1	1	3	248	0.00	29.834 
16:05	46.1	46.1	46.1	50	28.5	1	4	248	0.00	29.834 
16:10	46.1	46.1	46.1	51	29.0	0	3	248	0.00	29.834 
16:15	46.0	46.0	46.0	51	28.9	0	1	248	0.00	29.835 
16:20	46.0	46.0	46.0	51	28.9	0	3	248	0.00	29.835 
16:25	46.0	46.0	46.0	53	29.8	0	2	292	0.00	29.835 
16:30	46.0	46.0	46.0	53	29.8	0	1	315	0.00	29.829 
16:35	46.0	46.0	46.0	53	29.8	0	2	292	0.00	29.829 
16:40	46.1	46.1	46.1	52	29.5	0	3	292	0.00	29.829 
16:45	46.1	46.1	46.1	50	28.5	1	3	292	0.00	29.831 
16:50	46.2	46.2	46.2	49	28.1	1	5	270	0.00	29.831 
16:55	46.2	46.2	46.2	48	27.6	1	3	248	0.00	29.831 
17:00	46.4	46.4	46.4	48	27.8	0	3	248	0.00	29.832 
17:05	46.2	46.2	46.2	48	27.6	0	1	248	0.00	29.832 
17:10	46.2	46.2	46.2	48	27.6	0	1	248	0.00	29.832 
17:15	46.2	46.2	46.2	48	27.6	0	2	248	0.00	29.836 
17:20	46.1	46.1	46.1	49	28.0	0	2	248	0.00	29.836 
17:25	46.1	46.1	46.1	48	27.5	0	2	248	0.00	29.836 
17:30	46.0	46.0	46.0	49	27.9	0	1	248	0.00	29.835 
17:35	45.8	45.8	45.8	49	27.7	0	3	248	0.00	29.835 
17:40	45.7	45.7	45.7	49	27.6	0	2	248	0.00	29.835 
17:45	45.5	45.5	45.5	50	28.0	0	2	248	0.00	29.836 
17:50	45.4	45.4	45.4	50	27.9	0	2	248	0.00	29.836 
17:55	45.1	45.1	45.1	50	27.6	0	1	248	0.00	29.836 
18:00	44.9	44.9	44.9	50	27.4	0	1	248	0.00	29.836 
18:05	44.9	44.9	44.9	51	27.9	0	1	248	0.00	29.836 
18:10	44.8	44.8	44.8	51	27.8	0	1	248	0.00	29.836 
18:15	44.8	44.8	44.8	51	27.8	0	1	248	0.00	29.839 
18:20	44.6	44.6	44.6	52	28.1	0	1	248	0.00	29.839 
18:25	44.5	44.5	44.5	52	28.0	0	0	---	0.00	29.839 
18:30	44.3	44.3	44.3	53	28.3	0	1	248	0.00	29.850 
18:35	44.1	44.1	44.1	53	28.1	0	0	---	0.00	29.850 
18:40	43.8	43.8	43.8	54	28.3	0	0	---	0.00	29.850 
18:45	43.5	43.5	43.5	54	28.0	0	0	---	0.00	29.856 
18:50	43.2	43.2	43.2	55	28.1	0	0	---	0.00	29.856 
18:55	42.8	42.8	42.8	55	27.8	0	0	---	0.00	29.856 
19:00	42.5	42.5	42.5	57	28.4	0	0	---	0.00	29.860 
19:05	42.1	42.1	42.1	57	28.0	0	0	---	0.00	29.860 
19:10	41.6	41.6	41.6	58	27.9	0	0	---	0.00	29.860 
19:15	41.2	41.2	41.2	59	28.0	0	0	---	0.00	29.872 
19:20	40.9	40.9	40.9	61	28.5	0	0	---	0.00	29.872 
19:25	40.5	40.5	40.5	62	28.5	0	0	---	0.00	29.872 
19:30	40.1	40.1	40.1	62	28.1	0	0	---	0.00	29.874 
19:35	39.6	39.6	39.6	64	28.4	0	0	---	0.00	29.874 
19:40	39.3	39.3	39.3	65	28.5	0	0	---	0.00	29.874 
19:45	39.1	39.1	39.1	65	28.3	0	0	---	0.00	29.874 
19:50	38.9	38.9	38.9	66	28.5	0	0	---	0.00	29.874 
19:55	38.9	38.9	38.9	66	28.5	0	0	---	0.00	29.874 
20:00	38.9	38.9	38.9	66	28.5	0	0	---	0.00	29.879 
20:05	38.9	38.9	38.9	66	28.5	0	0	---	0.00	29.879 
20:10	38.8	38.8	38.8	67	28.8	0	0	---	0.00	29.879 
20:15	38.6	38.6	38.6	68	29.0	0	0	---	0.00	29.876 
20:20	38.6	38.6	38.6	69	29.3	0	0	---	0.00	29.876 
20:25	38.5	38.5	38.5	69	29.2	0	0	---	0.00	29.876 
20:30	38.6	38.6	38.6	69	29.3	0	0	---	0.00	29.872 
20:35	38.8	38.8	38.8	69	29.5	0	0	---	0.00	29.872 
20:40	38.9	38.9	38.9	69	29.6	0	0	---	0.00	29.872 
20:45	39.2	39.2	39.2	69	29.9	0	0	---	0.00	29.875 
20:50	39.3	39.3	39.3	69	30.0	0	0	---	0.00	29.875 
20:55	39.6	39.6	39.6	69	30.3	0	1	248	0.00	29.875 
21:00	40.2	40.2	40.2	68	30.5	0	1	248	0.00	29.873 
21:05	40.8	40.8	40.8	66	30.3	0	1	248	0.00	29.873 
21:10	41.2	41.2	41.2	65	30.3	0	1	248	0.00	29.873 
21:15	41.6	41.6	41.6	64	30.3	0	1	248	0.00	29.869 
21:20	42.1	42.1	42.1	63	30.4	0	1	248	0.00	29.869 
21:25	42.6	42.6	42.6	62	30.5	0	2	248	0.00	29.869 
21:30	43.1	43.1	43.1	61	30.6	0	3	248	0.00	29.864 
21:35	43.3	43.3	43.3	60	30.4	0	1	248	0.00	29.864 
21:40	43.5	43.5	43.5	59	30.1	0	1	248	0.00	29.864 
21:45	43.8	43.8	43.8	59	30.4	0	1	248	0.00	29.865 
21:50	43.8	43.8	43.8	59	30.4	0	1	248	0.00	29.865 
21:55	43.9	43.9	43.9	59	30.5	0	1	248	0.00	29.865 
22:00	43.9	43.9	43.9	59	30.5	0	1	248	0.00	29.862 
22:05	43.9	43.9	43.9	60	30.9	0	1	248	0.00	29.862 
22:10	44.1	44.1	44.1	59	30.7	0	1	248	0.00	29.862 
22:15	44.1	44.1	44.1	59	30.7	0	1	248	0.00	29.863 
22:20	44.1	44.1	44.1	59	30.7	0	0	---	0.00	29.863 
22:25	44.2	44.2	44.2	59	30.8	0	1	248	0.00	29.863 
22:30	44.2	44.2	44.2	60	31.2	0	1	248	0.00	29.863 
22:35	44.2	44.2	44.2	60	31.2	0	0	---	0.00	29.863 
22:40	44.1	44.1	44.1	61	31.5	0	1	248	0.00	29.863 
22:45	43.9	43.9	43.9	61	31.3	0	0	---	0.00	29.862 
22:50	43.9	43.9	43.9	61	31.3	0	1	248	0.00	29.862 
22:55	43.9	43.9	43.9	61	31.3	0	1	248	0.00	29.862 
23:00	43.8	43.8	43.8	61	31.2	0	0	---	0.00	29.863 
23:05	43.8	43.8	43.8	61	31.2	0	1	248	0.00	29.863 
23:10	43.6	43.6	43.6	61	31.0	0	1	248	0.00	29.863 
23:15	43.8	43.8	43.8	61	31.2	0	1	248	0.00	29.860 
23:20	43.8	43.8	43.8	61	31.2	0	1	248	0.00	29.860 
23:25	43.8	43.8	43.8	61	31.2	0	1	248	0.00	29.860 
23:30	43.8	43.8	43.8	61	31.2	0	1	248	0.00	29.861 
23:35	43.8	43.8	43.8	61	31.2	0	1	248	0.00	29.861 
23:40	43.8	43.8	43.8	61	31.2	0	1	248	0.00	29.861 
23:45	43.8	43.8	43.8	61	31.2	0	0	---	0.00	29.862 
23:50	43.8	43.8	43.8	61	31.2	0	0	---	0.00	29.862 
23:55	43.8	43.8	43.8	61	31.2	0	0	---	0.00	29.862 

CoCoRaHS
IN-AL-39
A2 Web Hosting
Creative Commons License
GoDaddy
search engine by freefind advanced

loaded 2018-11-17 13:12:27 • last modified 2010-11-18 10:43:29
Privacy PolicyDisclaimer
• wx.awcolley.com is powered by PmWiki v.2002016 •
• all content (unless otherwise noted) © 2018 A W Colley